createdAt,value
2023-02-28T02:13:23.568Z,99.90
2023-02-28T02:18:43.712Z,99.90
2023-02-28T02:24:11.384Z,99.90
2023-02-28T02:29:40.928Z,99.90
2023-02-28T02:35:11.265Z,99.90
2023-02-28T02:40:21.892Z,99.90
2023-02-28T02:45:34.432Z,99.90
2023-02-28T02:50:42.695Z,99.90
2023-02-28T02:55:52.732Z,99.90
2023-02-28T03:01:01.254Z,99.90
2023-02-28T03:06:07.356Z,99.90
2023-02-28T03:11:15.968Z,99.90
2023-02-28T03:16:36.322Z,99.90
2023-02-28T03:21:53.763Z,99.90
2023-02-28T03:27:01.939Z,99.90
2023-02-28T03:32:25.437Z,99.90
2023-02-28T03:37:35.320Z,99.90
2023-02-28T03:42:42.444Z,99.90
2023-02-28T03:47:50.643Z,99.90
2023-02-28T03:53:05.957Z,99.90
2023-02-28T03:58:19.684Z,99.90
2023-02-28T04:03:24.999Z,99.90
2023-02-28T04:08:30.379Z,99.90
2023-02-28T04:13:35.553Z,99.90
2023-02-28T04:18:44.083Z,99.90
2023-02-28T04:23:49.262Z,99.90
2023-02-28T04:28:55.150Z,99.90
2023-02-28T04:34:00.907Z,99.90
2023-02-28T04:39:06.293Z,99.90
2023-02-28T04:44:11.492Z,99.90
2023-02-28T04:49:17.210Z,99.90
2023-02-28T04:54:22.388Z,99.90
2023-02-28T04:59:27.571Z,99.90
2023-02-28T05:04:34.360Z,99.90
2023-02-28T05:09:39.541Z,99.90
2023-02-28T05:14:45.547Z,99.90
2023-02-28T05:19:50.834Z,99.90
2023-02-28T05:24:57.629Z,99.90
2023-02-28T05:30:05.054Z,99.90
2023-02-28T05:35:12.782Z,99.90
2023-02-28T05:40:18.767Z,99.90
2023-02-28T05:45:23.959Z,99.90
2023-02-28T05:50:29.219Z,99.90
2023-02-28T05:55:34.493Z,99.90
2023-02-28T06:00:41.496Z,99.90
2023-02-28T06:05:46.386Z,99.90
2023-02-28T06:10:51.520Z,99.90
2023-02-28T06:15:56.717Z,99.90
2023-02-28T06:21:02.031Z,99.90
2023-02-28T06:26:07.486Z,99.90
2023-02-28T06:31:16.397Z,99.90
2023-02-28T06:36:21.729Z,99.90
2023-02-28T06:41:29.178Z,99.90
2023-02-28T06:46:35.193Z,99.90
2023-02-28T06:51:43.028Z,99.90
2023-02-28T06:56:48.232Z,99.90
2023-02-28T07:01:53.589Z,99.90
2023-02-28T07:06:58.802Z,99.90
2023-02-28T07:12:08.770Z,99.90
2023-02-28T07:17:14.254Z,99.90
2023-02-28T07:22:19.499Z,99.90
2023-02-28T07:27:27.497Z,99.90
2023-02-28T07:32:32.727Z,99.90
2023-02-28T07:37:41.333Z,99.90
2023-02-28T07:42:46.694Z,99.90
2023-02-28T07:47:52.057Z,99.90
2023-02-28T07:52:57.567Z,99.90
2023-02-28T07:58:02.907Z,99.90
2023-02-28T08:03:08.313Z,99.90
2023-02-28T08:08:13.825Z,99.90
2023-02-28T08:13:19.664Z,99.90
2023-02-28T08:18:26.039Z,99.30
2023-02-28T08:23:31.516Z,96.90
2023-02-28T08:28:40.963Z,97.10
2023-02-28T08:33:46.876Z,93.70
2023-02-28T08:38:52.289Z,91.60
2023-02-28T08:43:57.727Z,90.50
2023-02-28T08:49:03.102Z,84.80
2023-02-28T08:54:15.255Z,90.80
2023-02-28T08:59:20.772Z,86.60
2023-02-28T09:04:26.020Z,84.40
2023-02-28T09:09:31.340Z,87.90
2023-02-28T09:14:36.584Z,84.40
2023-02-28T09:19:41.766Z,83.80
2023-02-28T09:24:46.986Z,77.10
2023-02-28T09:29:52.310Z,83.60
2023-02-28T09:34:58.164Z,80.80
2023-02-28T09:40:04.883Z,79.80
2023-02-28T09:45:19.080Z,79.60
2023-02-28T09:50:43.164Z,79.40
2023-02-28T09:55:53.969Z,80.20
2023-02-28T10:01:03.141Z,77.80
2023-02-28T10:06:23.242Z,80.60
2023-02-28T10:11:29.931Z,76.50
2023-02-28T10:16:49.364Z,73.10
2023-02-28T10:22:17.298Z,68.90
2023-02-28T10:27:27.786Z,68.70
2023-02-28T10:32:36.899Z,68.40
2023-02-28T10:37:45.791Z,70.50
2023-02-28T10:43:09.046Z,72.00
2023-02-28T10:48:19.731Z,68.40
2023-02-28T10:53:27.960Z,72.50
2023-02-28T10:58:38.825Z,66.80
2023-02-28T11:03:45.076Z,68.90
2023-02-28T11:08:53.582Z,69.30
2023-02-28T11:14:02.079Z,66.90
2023-02-28T11:19:11.683Z,66.20
2023-02-28T11:24:28.369Z,64.20
2023-02-28T11:29:41.578Z,63.20
2023-02-28T11:34:49.601Z,62.30
2023-02-28T11:39:55.113Z,61.50
2023-02-28T11:45:24.269Z,65.50
2023-02-28T11:50:50.502Z,63.20
2023-02-28T11:56:17.898Z,64.10
2023-02-28T12:01:41.345Z,68.20
2023-02-28T12:07:01.457Z,63.90
2023-02-28T12:12:11.337Z,62.90
2023-02-28T12:17:25.547Z,66.20
2023-02-28T12:22:33.651Z,61.80
2023-02-28T12:27:45.066Z,65.60
2023-02-28T12:33:04.685Z,65.30
2023-02-28T12:38:21.876Z,64.40
2023-02-28T12:43:30.424Z,63.70
2023-02-28T12:48:43.992Z,62.50
2023-02-28T12:53:58.437Z,63.40
2023-02-28T12:59:09.039Z,60.80
2023-02-28T13:04:25.384Z,61.90
2023-02-28T13:09:36.138Z,62.50
2023-02-28T13:14:42.229Z,61.60
2023-02-28T13:20:01.242Z,59.70
2023-02-28T13:25:25.632Z,61.40
2023-02-28T13:30:58.139Z,61.40
2023-02-28T13:36:18.543Z,61.50
2023-02-28T13:41:39.836Z,59.10
2023-02-28T13:46:53.804Z,58.80
2023-02-28T13:52:15.393Z,61.70
2023-02-28T13:57:32.063Z,61.40
2023-02-28T14:02:58.043Z,60.40
2023-02-28T14:08:19.098Z,61.00
2023-02-28T14:13:49.461Z,61.50
2023-02-28T14:19:04.655Z,60.80
2023-02-28T14:24:24.752Z,62.10
2023-02-28T14:29:47.837Z,63.00
2023-02-28T14:35:12.517Z,63.10
2023-02-28T14:40:21.337Z,64.00
2023-02-28T14:45:29.982Z,67.00
2023-02-28T14:50:39.919Z,67.70
2023-02-28T14:55:48.645Z,68.00
2023-02-28T15:00:56.574Z,67.10
2023-02-28T15:06:04.347Z,66.70
2023-02-28T15:11:12.502Z,66.10
2023-02-28T15:16:33.340Z,65.80
2023-02-28T15:21:42.078Z,66.40
2023-02-28T15:26:51.757Z,67.30
2023-02-28T15:32:05.764Z,67.80
2023-02-28T15:37:35.363Z,68.50
2023-02-28T15:42:41.411Z,69.00
2023-02-28T15:47:49.474Z,69.50
2023-02-28T15:52:54.739Z,69.60
2023-02-28T15:58:03.419Z,70.10
2023-02-28T16:03:32.500Z,70.90
2023-02-28T16:08:37.627Z,71.40
2023-02-28T16:13:42.836Z,71.70
2023-02-28T16:18:48.180Z,72.50
2023-02-28T16:23:53.377Z,72.80
2023-02-28T16:28:59.433Z,74.00
2023-02-28T16:34:04.831Z,75.10
2023-02-28T16:39:10.566Z,76.40
2023-02-28T16:44:35.850Z,77.90
2023-02-28T16:49:43.369Z,79.10
2023-02-28T16:54:48.735Z,79.70
2023-02-28T16:59:53.971Z,80.60
2023-02-28T17:04:59.114Z,81.80
2023-02-28T17:10:08.017Z,83.10
2023-02-28T17:15:15.130Z,83.90
2023-02-28T17:20:24.484Z,85.00
2023-02-28T17:25:29.559Z,86.10
2023-02-28T17:30:36.604Z,86.80
2023-02-28T17:35:41.734Z,88.30
2023-02-28T17:40:47.512Z,89.50
2023-02-28T17:45:54.800Z,90.30
2023-02-28T17:51:00.849Z,91.00
2023-02-28T17:56:06.329Z,93.30
2023-02-28T18:01:13.220Z,94.70
2023-02-28T18:06:25.021Z,95.90
2023-02-28T18:11:32.153Z,97.00
2023-02-28T18:16:37.667Z,99.90
2023-02-28T18:21:47.795Z,99.90
2023-02-28T18:26:53.011Z,99.90
2023-02-28T18:31:58.694Z,99.90
2023-02-28T18:37:03.722Z,99.90
2023-02-28T18:42:12.917Z,99.90
2023-02-28T18:47:18.541Z,99.90
2023-02-28T18:52:30.610Z,99.90
2023-02-28T18:57:35.840Z,99.90
2023-02-28T19:02:41.186Z,99.90
2023-02-28T19:07:47.372Z,99.90
2023-02-28T19:12:52.681Z,99.90
2023-02-28T19:17:57.858Z,99.90
2023-02-28T19:23:02.981Z,99.90
2023-02-28T19:28:08.110Z,99.90
2023-02-28T19:33:13.718Z,99.90
2023-02-28T19:38:22.872Z,99.90
2023-02-28T19:43:28.812Z,99.90
2023-02-28T19:48:35.580Z,99.90
2023-02-28T19:53:43.250Z,99.90
2023-02-28T19:58:48.533Z,99.90
2023-02-28T20:03:54.094Z,99.90
2023-02-28T20:08:59.877Z,99.90
2023-02-28T20:14:05.637Z,99.90
2023-02-28T20:19:10.912Z,99.90
2023-02-28T20:24:17.058Z,99.90
2023-02-28T20:29:22.302Z,99.90
2023-02-28T20:34:27.571Z,99.90
2023-02-28T20:39:32.794Z,99.90
2023-02-28T20:44:38.233Z,99.90
2023-02-28T20:49:43.414Z,99.90
2023-02-28T20:54:49.095Z,99.90
2023-02-28T20:59:54.282Z,99.90
2023-02-28T21:05:02.286Z,99.90
2023-02-28T21:10:09.525Z,99.90
2023-02-28T21:15:14.883Z,99.90
2023-02-28T21:20:22.534Z,99.90
2023-02-28T21:25:27.758Z,99.90
2023-02-28T21:30:32.924Z,99.90
2023-02-28T21:35:38.186Z,99.90
2023-02-28T21:40:43.397Z,99.90
2023-02-28T21:45:50.505Z,99.90
2023-02-28T21:51:02.514Z,99.90
2023-02-28T21:56:10.773Z,99.90
2023-02-28T22:01:18.920Z,99.90
2023-02-28T22:06:27.340Z,99.90
2023-02-28T22:11:32.830Z,99.90
2023-02-28T22:16:50.652Z,99.90
2023-02-28T22:21:47.750Z,99.90
2023-02-28T22:26:54.265Z,99.90
2023-02-28T22:31:59.428Z,99.90
2023-02-28T22:37:04.797Z,99.90
2023-02-28T22:42:10.089Z,99.90
2023-02-28T22:47:15.706Z,99.90
2023-02-28T22:52:20.846Z,99.90
2023-02-28T22:57:26.078Z,99.90
2023-02-28T23:02:31.253Z,99.90
2023-02-28T23:07:36.463Z,99.90
2023-02-28T23:12:43.618Z,99.90
2023-02-28T23:17:50.295Z,99.90
2023-02-28T23:22:55.584Z,99.90
2023-02-28T23:28:01.237Z,99.90
2023-02-28T23:33:07.813Z,99.90
2023-02-28T23:38:13.505Z,99.90
2023-02-28T23:43:19.804Z,99.90
2023-02-28T23:48:25.529Z,99.90
2023-02-28T23:53:33.917Z,99.90
2023-02-28T23:58:39.774Z,99.90
